PWSweather.com
Personal Weather Stations
Station Observations
URBANDALE
Westwind Acres And Meredith Hills, Urbandale, IA 50322

Westwind Acres And Meredith HillsUrbandale, IA 50322

Lat: 41.643, Lon: -93.709

Elevation: 928

Station Type:

http://urbandaleweather.com

High Low Average
Temperature 65.3°F18.5°C 52.0°F11.1°C 58.1°F14.5°C
Dew Point 54.3°F12.4°C 45.5°F7.5°C 49.5°F9.7°C
Winds 2.9 mph 4.7 kmh Calm Calm 1.0 mph SE1.6 kmh SE
Wind Gusts 8.1 mph13.0 kmh -- 3.0 mph4.8 kmh
Humidity 96% 56% 74%
Pressure 29.97 in1014.9 mb 29.87 in1011.5 mb -
Precipitation 0.31 in7.9 mm - -
Hour Temp Dew Point Humidity Winds Wind Gusts Pressure Precip Precip Rate Daily Precip Total
12:04 AM 56.5°F13.6°C 46.4°F8.0°C 69% 0.9 mph S1.4 kmh S 2.0 mph3.2 kmh 29.97 in1014.9 mb 0.00 in0.0 mm 0.00 in0.0 mm 0.00 in0.0 mm
12:09 AM 56.3°F13.5°C 46.2°F7.9°C 69% 2.0 mph SE3.2 kmh SE 4.0 mph6.4 kmh 29.97 in1014.9 mb 0.00 in0.0 mm 0.00 in0.0 mm 0.00 in0.0 mm
12:14 AM 56.3°F13.5°C 46.6°F8.1°C 70% 0.9 mph SSW1.4 kmh SSW 2.9 mph4.7 kmh 29.97 in1014.9 mb 0.00 in0.0 mm 0.00 in0.0 mm 0.00 in0.0 mm
12:19 AM 56.1°F13.4°C 46.4°F8.0°C 70% 0.9 mph SSW1.4 kmh SSW 4.0 mph6.4 kmh 29.97 in1014.9 mb 0.00 in0.0 mm 0.00 in0.0 mm 0.00 in0.0 mm
12:24 AM 55.9°F13.3°C 46.2°F7.9°C 70% 0.9 mph S1.4 kmh S 2.9 mph4.7 kmh 29.97 in1014.9 mb 0.00 in0.0 mm 0.00 in0.0 mm 0.00 in0.0 mm
12:29 AM 55.9°F13.3°C 46.2°F7.9°C 70% 0.9 mph S1.4 kmh S 2.0 mph3.2 kmh 29.97 in1014.9 mb 0.00 in0.0 mm 0.00 in0.0 mm 0.00 in0.0 mm
12:34 AM 55.9°F13.3°C 46.2°F7.9°C 70% 0.9 mph S1.4 kmh S 2.9 mph4.7 kmh 29.97 in1014.9 mb 0.00 in0.0 mm 0.00 in0.0 mm 0.00 in0.0 mm
12:39 AM 55.8°F13.2°C 46.6°F8.1°C 71% 2.0 mph SSW3.2 kmh SSW 4.0 mph6.4 kmh 29.98 in1015.2 mb 0.00 in0.0 mm 0.00 in0.0 mm 0.00 in0.0 mm
12:44 AM 55.8°F13.2°C 46.6°F8.1°C 71% 0.9 mph SSE1.4 kmh SSE 2.9 mph4.7 kmh 29.97 in1014.9 mb 0.00 in0.0 mm 0.00 in0.0 mm 0.00 in0.0 mm
12:49 AM 55.8°F13.2°C 46.6°F8.1°C 71% 0.9 mph S1.4 kmh S 2.9 mph4.7 kmh 29.97 in1014.9 mb 0.00 in0.0 mm 0.00 in0.0 mm 0.00 in0.0 mm
12:54 AM 55.6°F13.1°C 46.4°F8.0°C 71% 0.9 mph SSE1.4 kmh SSE 2.0 mph3.2 kmh 29.97 in1014.9 mb 0.00 in0.0 mm 0.00 in0.0 mm 0.00 in0.0 mm
12:59 AM 55.6°F13.1°C 46.4°F8.0°C 71% 0.9 mph SSW1.4 kmh SSW 2.9 mph4.7 kmh 29.97 in1014.9 mb 0.00 in0.0 mm 0.00 in0.0 mm 0.00 in0.0 mm
01:04 AM 55.6°F13.1°C 46.4°F8.0°C 71% 0.9 mph SSE1.4 kmh SSE 2.9 mph4.7 kmh 29.97 in1014.9 mb 0.00 in0.0 mm 0.00 in0.0 mm 0.00 in0.0 mm
01:09 AM 55.6°F13.1°C 46.4°F8.0°C 71% 0.9 mph S1.4 kmh S 2.0 mph3.2 kmh 29.97 in1014.9 mb 0.00 in0.0 mm 0.00 in0.0 mm 0.00 in0.0 mm
01:14 AM 55.4°F13.0°C 46.6°F8.1°C 72% 0.9 mph SSE1.4 kmh SSE 2.9 mph4.7 kmh 29.97 in1014.9 mb 0.00 in0.0 mm 0.00 in0.0 mm 0.00 in0.0 mm
01:19 AM 55.4°F13.0°C 46.6°F8.1°C 72% 0.9 mph SSW1.4 kmh SSW 2.0 mph3.2 kmh 29.97 in1014.9 mb 0.00 in0.0 mm 0.00 in0.0 mm 0.00 in0.0 mm
01:25 AM 55.2°F12.9°C 46.4°F8.0°C 72% 0.9 mph S1.4 kmh S 2.9 mph4.7 kmh 29.97 in1014.9 mb 0.00 in0.0 mm 0.00 in0.0 mm 0.00 in0.0 mm
01:30 AM 55.2°F12.9°C 46.4°F8.0°C 72% 0.9 mph S1.4 kmh S 2.9 mph4.7 kmh 29.97 in1014.9 mb 0.00 in0.0 mm 0.00 in0.0 mm 0.00 in0.0 mm
01:35 AM 55.2°F12.9°C 46.4°F8.0°C 72% 0.9 mph SSE1.4 kmh SSE 2.9 mph4.7 kmh 29.97 in1014.9 mb 0.00 in0.0 mm 0.00 in0.0 mm 0.00 in0.0 mm
01:40 AM 55.4°F13.0°C 46.6°F8.1°C 72% 0.9 mph SSE1.4 kmh SSE 2.9 mph4.7 kmh 29.97 in1014.9 mb 0.00 in0.0 mm 0.00 in0.0 mm 0.00 in0.0 mm
01:45 AM 55.6°F13.1°C 46.4°F8.0°C 71% 0.9 mph SSW1.4 kmh SSW 4.0 mph6.4 kmh 29.97 in1014.9 mb 0.00 in0.0 mm 0.00 in0.0 mm 0.00 in0.0 mm
01:50 AM 55.6°F13.1°C 46.4°F8.0°C 71% 0.9 mph SSW1.4 kmh SSW 5.0 mph8.0 kmh 29.97 in1014.9 mb 0.00 in0.0 mm 0.00 in0.0 mm 0.00 in0.0 mm
01:55 AM 55.4°F13.0°C 46.6°F8.1°C 72% 2.0 mph S3.2 kmh S 4.0 mph6.4 kmh 29.97 in1014.9 mb 0.00 in0.0 mm 0.00 in0.0 mm 0.00 in0.0 mm
02:00 AM 55.4°F13.0°C 46.6°F8.1°C 72% 2.0 mph SSW3.2 kmh SSW 4.0 mph6.4 kmh 29.97 in1014.9 mb 0.00 in0.0 mm 0.00 in0.0 mm 0.00 in0.0 mm
02:05 AM 55.2°F12.9°C 46.4°F8.0°C 72% 2.0 mph S3.2 kmh S 4.0 mph6.4 kmh 29.97 in1014.9 mb 0.00 in0.0 mm 0.00 in0.0 mm 0.00 in0.0 mm
02:15 AM 55.0°F12.8°C 46.2°F7.9°C 72% 0.9 mph S1.4 kmh S 4.0 mph6.4 kmh 29.97 in1014.9 mb 0.00 in0.0 mm 0.00 in0.0 mm 0.00 in0.0 mm
02:20 AM 54.9°F12.7°C 46.4°F8.0°C 73% 0.9 mph SSE1.4 kmh SSE 2.9 mph4.7 kmh 29.97 in1014.9 mb 0.00 in0.0 mm 0.00 in0.0 mm 0.00 in0.0 mm
02:25 AM 54.9°F12.7°C 46.0°F7.8°C 72% 0.9 mph SSE1.4 kmh SSE 2.9 mph4.7 kmh 29.97 in1014.9 mb 0.00 in0.0 mm 0.00 in0.0 mm 0.00 in0.0 mm
02:30 AM 54.9°F12.7°C 46.4°F8.0°C 73% 0.9 mph SSW1.4 kmh SSW 2.9 mph4.7 kmh 29.97 in1014.9 mb 0.00 in0.0 mm 0.00 in0.0 mm 0.00 in0.0 mm
02:35 AM 54.9°F12.7°C 46.0°F7.8°C 72% 0.9 mph S1.4 kmh S 4.0 mph6.4 kmh 29.96 in1014.6 mb 0.00 in0.0 mm 0.00 in0.0 mm 0.00 in0.0 mm
02:40 AM 54.9°F12.7°C 46.0°F7.8°C 72% 0.9 mph S1.4 kmh S 2.9 mph4.7 kmh 29.97 in1014.9 mb 0.00 in0.0 mm 0.00 in0.0 mm 0.00 in0.0 mm
02:45 AM 54.9°F12.7°C 46.4°F8.0°C 73% 0.9 mph S1.4 kmh S 2.0 mph3.2 kmh 29.96 in1014.6 mb 0.00 in0.0 mm 0.00 in0.0 mm 0.00 in0.0 mm
02:50 AM 54.7°F12.6°C 46.2°F7.9°C 73% 0.9 mph SE1.4 kmh SE 2.9 mph4.7 kmh 29.96 in1014.6 mb 0.00 in0.0 mm 0.00 in0.0 mm 0.00 in0.0 mm
02:55 AM 54.7°F12.6°C 46.2°F7.9°C 73% 0.9 mph SSW1.4 kmh SSW 2.9 mph4.7 kmh 29.96 in1014.6 mb 0.00 in0.0 mm 0.00 in0.0 mm 0.00 in0.0 mm
03:00 AM 54.5°F12.5°C 46.0°F7.8°C 73% 0.9 mph SSE1.4 kmh SSE 2.0 mph3.2 kmh 29.96 in1014.6 mb 0.00 in0.0 mm 0.00 in0.0 mm 0.00 in0.0 mm
03:05 AM 54.5°F12.5°C 46.0°F7.8°C 73% 0.9 mph S1.4 kmh S 3.0 mph4.8 kmh 29.96 in1014.6 mb 0.00 in0.0 mm 0.00 in0.0 mm 0.00 in0.0 mm
03:10 AM 54.5°F12.5°C 46.0°F7.8°C 73% 0.9 mph S1.4 kmh S 4.0 mph6.4 kmh 29.95 in1014.2 mb 0.00 in0.0 mm 0.00 in0.0 mm 0.00 in0.0 mm
03:15 AM 54.3°F12.4°C 45.9°F7.7°C 73% 0.9 mph SE1.4 kmh SE 4.0 mph6.4 kmh 29.95 in1014.2 mb 0.00 in0.0 mm 0.00 in0.0 mm 0.00 in0.0 mm
03:20 AM 54.3°F12.4°C 45.9°F7.7°C 73% 0.9 mph S1.4 kmh S 2.0 mph3.2 kmh 29.95 in1014.2 mb 0.00 in0.0 mm 0.00 in0.0 mm 0.00 in0.0 mm
03:25 AM 54.3°F12.4°C 45.9°F7.7°C 73% 0.9 mph S1.4 kmh S 3.0 mph4.8 kmh 29.94 in1013.9 mb 0.00 in0.0 mm 0.00 in0.0 mm 0.00 in0.0 mm
03:30 AM 54.3°F12.4°C 45.9°F7.7°C 73% 2.0 mph SSE3.2 kmh SSE 4.0 mph6.4 kmh 29.94 in1013.9 mb 0.00 in0.0 mm 0.00 in0.0 mm 0.00 in0.0 mm
03:35 AM 54.3°F12.4°C 45.9°F7.7°C 73% 2.0 mph SE3.2 kmh SE 5.0 mph8.0 kmh 29.94 in1013.9 mb 0.00 in0.0 mm 0.00 in0.0 mm 0.00 in0.0 mm
03:40 AM 54.3°F12.4°C 45.9°F7.7°C 73% 0.9 mph SSE1.4 kmh SSE 2.9 mph4.7 kmh 29.95 in1014.2 mb 0.00 in0.0 mm 0.00 in0.0 mm 0.00 in0.0 mm
03:45 AM 54.1°F12.3°C 45.7°F7.6°C 73% 0.9 mph SSE1.4 kmh SSE 2.9 mph4.7 kmh 29.94 in1013.9 mb 0.00 in0.0 mm 0.00 in0.0 mm 0.00 in0.0 mm
03:50 AM 54.1°F12.3°C 45.7°F7.6°C 73% 0.9 mph SSW1.4 kmh SSW 2.0 mph3.2 kmh 29.94 in1013.9 mb 0.00 in0.0 mm 0.00 in0.0 mm 0.00 in0.0 mm
03:55 AM 54.1°F12.3°C 45.7°F7.6°C 73% 0.9 mph SE1.4 kmh SE 5.0 mph8.0 kmh 29.95 in1014.2 mb 0.00 in0.0 mm 0.00 in0.0 mm 0.00 in0.0 mm
04:05 AM 54.1°F12.3°C 45.7°F7.6°C 73% 0.9 mph SSE1.4 kmh SSE 2.9 mph4.7 kmh 29.95 in1014.2 mb 0.00 in0.0 mm 0.00 in0.0 mm 0.00 in0.0 mm
04:10 AM 54.3°F12.4°C 45.9°F7.7°C 73% 0.9 mph SSW1.4 kmh SSW 2.9 mph4.7 kmh 29.95 in1014.2 mb 0.00 in0.0 mm 0.00 in0.0 mm 0.00 in0.0 mm
04:15 AM 54.3°F12.4°C 45.9°F7.7°C 73% 2.0 mph SSE3.2 kmh SSE 6.0 mph9.7 kmh 29.95 in1014.2 mb 0.00 in0.0 mm 0.00 in0.0 mm 0.00 in0.0 mm
04:20 AM 54.3°F12.4°C 45.9°F7.7°C 73% 2.0 mph SSE3.2 kmh SSE 2.0 mph3.2 kmh 29.95 in1014.2 mb 0.00 in0.0 mm 0.00 in0.0 mm 0.00 in0.0 mm
04:25 AM 54.3°F12.4°C 45.9°F7.7°C 73% 2.0 mph SSE3.2 kmh SSE 5.0 mph8.0 kmh 29.95 in1014.2 mb 0.00 in0.0 mm 0.00 in0.0 mm 0.00 in0.0 mm
04:30 AM 54.3°F12.4°C 45.9°F7.7°C 73% 2.0 mph S3.2 kmh S 4.0 mph6.4 kmh 29.95 in1014.2 mb 0.00 in0.0 mm 0.00 in0.0 mm 0.00 in0.0 mm
04:40 AM 54.1°F12.3°C 45.7°F7.6°C 73% 0.9 mph S1.4 kmh S 2.0 mph3.2 kmh 29.94 in1013.9 mb 0.00 in0.0 mm 0.00 in0.0 mm 0.00 in0.0 mm
04:45 AM 54.1°F12.3°C 45.7°F7.6°C 73% 0.9 mph SE1.4 kmh SE 2.9 mph4.7 kmh 29.94 in1013.9 mb 0.00 in0.0 mm 0.00 in0.0 mm 0.00 in0.0 mm
04:50 AM 54.1°F12.3°C 45.7°F7.6°C 73% 0.9 mph SSE1.4 kmh SSE 4.0 mph6.4 kmh 29.94 in1013.9 mb 0.00 in0.0 mm 0.00 in0.0 mm 0.00 in0.0 mm
04:55 AM 54.1°F12.3°C 45.7°F7.6°C 73% 2.0 mph S3.2 kmh S 4.0 mph6.4 kmh 29.94 in1013.9 mb 0.00 in0.0 mm 0.00 in0.0 mm 0.00 in0.0 mm
05:00 AM 54.3°F12.4°C 45.9°F7.7°C 73% 2.0 mph SSE3.2 kmh SSE 4.0 mph6.4 kmh 29.94 in1013.9 mb 0.00 in0.0 mm 0.00 in0.0 mm 0.00 in0.0 mm
05:05 AM 54.3°F12.4°C 45.5°F7.5°C 72% 0.9 mph SE1.4 kmh SE 2.9 mph4.7 kmh 29.94 in1013.9 mb 0.00 in0.0 mm 0.00 in0.0 mm 0.00 in0.0 mm
05:10 AM 54.3°F12.4°C 45.9°F7.7°C 73% 0.9 mph SSW1.4 kmh SSW 2.9 mph4.7 kmh 29.94 in1013.9 mb 0.00 in0.0 mm 0.00 in0.0 mm 0.00 in0.0 mm
05:15 AM 54.1°F12.3°C 45.7°F7.6°C 73% 0.9 mph SE1.4 kmh SE 2.9 mph4.7 kmh 29.94 in1013.9 mb 0.00 in0.0 mm 0.00 in0.0 mm 0.00 in0.0 mm
05:20 AM 54.3°F12.4°C 45.9°F7.7°C 73% 2.0 mph S3.2 kmh S 6.0 mph9.7 kmh 29.94 in1013.9 mb 0.00 in0.0 mm 0.00 in0.0 mm 0.00 in0.0 mm
05:25 AM 54.1°F12.3°C 45.7°F7.6°C 73% 2.0 mph SSE3.2 kmh SSE 4.0 mph6.4 kmh 29.94 in1013.9 mb 0.00 in0.0 mm 0.00 in0.0 mm 0.00 in0.0 mm
05:30 AM 54.1°F12.3°C 45.7°F7.6°C 73% 0.9 mph SSE1.4 kmh SSE 2.9 mph4.7 kmh 29.94 in1013.9 mb 0.00 in0.0 mm 0.00 in0.0 mm 0.00 in0.0 mm
05:35 AM 54.1°F12.3°C 46.0°F7.8°C 74% 2.0 mph SSW3.2 kmh SSW 4.0 mph6.4 kmh 29.94 in1013.9 mb 0.00 in0.0 mm 0.00 in0.0 mm 0.00 in0.0 mm
05:40 AM 54.0°F12.2°C 45.9°F7.7°C 74% 2.0 mph SSE3.2 kmh SSE 4.0 mph6.4 kmh 29.94 in1013.9 mb 0.00 in0.0 mm 0.00 in0.0 mm 0.00 in0.0 mm
05:45 AM 54.0°F12.2°C 45.9°F7.7°C 74% 2.0 mph SE3.2 kmh SE 4.0 mph6.4 kmh 29.94 in1013.9 mb 0.00 in0.0 mm 0.00 in0.0 mm 0.00 in0.0 mm
05:50 AM 53.8°F12.1°C 45.7°F7.6°C 74% 2.0 mph SSW3.2 kmh SSW 4.0 mph6.4 kmh 29.94 in1013.9 mb 0.00 in0.0 mm 0.00 in0.0 mm 0.00 in0.0 mm
05:55 AM 53.8°F12.1°C 46.0°F7.8°C 75% 2.0 mph S3.2 kmh S 2.9 mph4.7 kmh 29.94 in1013.9 mb 0.00 in0.0 mm 0.00 in0.0 mm 0.00 in0.0 mm
06:00 AM 53.4°F11.9°C 45.7°F7.6°C 75% 0.9 mph SW1.4 kmh SW 2.9 mph4.7 kmh 29.94 in1013.9 mb 0.00 in0.0 mm 0.00 in0.0 mm 0.00 in0.0 mm
06:05 AM 53.2°F11.8°C 45.5°F7.5°C 75% 0.9 mph SSE1.4 kmh SSE 2.0 mph3.2 kmh 29.94 in1013.9 mb 0.00 in0.0 mm 0.00 in0.0 mm 0.00 in0.0 mm
06:10 AM 53.2°F11.8°C 45.9°F7.7°C 76% 0.9 mph S1.4 kmh S 2.0 mph3.2 kmh 29.94 in1013.9 mb 0.00 in0.0 mm 0.00 in0.0 mm 0.00 in0.0 mm
06:15 AM 53.1°F11.7°C 45.7°F7.6°C 76% 0.9 mph SE1.4 kmh SE 3.0 mph4.8 kmh 29.94 in1013.9 mb 0.00 in0.0 mm 0.00 in0.0 mm 0.00 in0.0 mm
06:20 AM 53.1°F11.7°C 46.0°F7.8°C 77% 0.9 mph SE1.4 kmh SE 2.0 mph3.2 kmh 29.94 in1013.9 mb 0.00 in0.0 mm 0.00 in0.0 mm 0.00 in0.0 mm
06:25 AM 53.1°F11.7°C 45.7°F7.6°C 76% 0.9 mph S1.4 kmh S 4.0 mph6.4 kmh 29.94 in1013.9 mb 0.00 in0.0 mm 0.00 in0.0 mm 0.00 in0.0 mm
06:30 AM 53.2°F11.8°C 45.9°F7.7°C 76% 0.9 mph SSE1.4 kmh SSE 2.0 mph3.2 kmh 29.94 in1013.9 mb 0.00 in0.0 mm 0.00 in0.0 mm 0.00 in0.0 mm
06:35 AM 53.2°F11.8°C 45.9°F7.7°C 76% 0.9 mph SE1.4 kmh SE 2.0 mph3.2 kmh 29.94 in1013.9 mb 0.00 in0.0 mm 0.00 in0.0 mm 0.00 in0.0 mm
06:40 AM 53.1°F11.7°C 45.7°F7.6°C 76% 0.9 mph SE1.4 kmh SE 2.0 mph3.2 kmh 29.94 in1013.9 mb 0.00 in0.0 mm 0.00 in0.0 mm 0.00 in0.0 mm
06:45 AM 53.1°F11.7°C 45.7°F7.6°C 76% 0.9 mph SE1.4 kmh SE 2.0 mph3.2 kmh 29.94 in1013.9 mb 0.00 in0.0 mm 0.00 in0.0 mm 0.00 in0.0 mm
06:50 AM 52.9°F11.6°C 45.9°F7.7°C 77% 0.9 mph SE1.4 kmh SE 3.0 mph4.8 kmh 29.94 in1013.9 mb 0.00 in0.0 mm 0.00 in0.0 mm 0.00 in0.0 mm
06:55 AM 52.5°F11.4°C 45.5°F7.5°C 77% 0.9 mph SE1.4 kmh SE 2.9 mph4.7 kmh 29.94 in1013.9 mb 0.00 in0.0 mm 0.00 in0.0 mm 0.00 in0.0 mm
07:00 AM 52.3°F11.3°C 45.7°F7.6°C 78% Calm Calm 0.9 mph1.4 kmh 29.94 in1013.9 mb 0.00 in0.0 mm 0.00 in0.0 mm 0.00 in0.0 mm
07:05 AM 52.2°F11.2°C 45.5°F7.5°C 78% Calm Calm -- 29.94 in1013.9 mb 0.00 in0.0 mm 0.00 in0.0 mm 0.00 in0.0 mm
07:10 AM 52.0°F11.1°C 45.7°F7.6°C 79% Calm Calm -- 29.94 in1013.9 mb 0.00 in0.0 mm 0.00 in0.0 mm 0.00 in0.0 mm
07:15 AM 52.0°F11.1°C 45.7°F7.6°C 79% Calm Calm 2.0 mph3.2 kmh 29.94 in1013.9 mb 0.00 in0.0 mm 0.00 in0.0 mm 0.00 in0.0 mm
07:20 AM 52.0°F11.1°C 45.7°F7.6°C 79% Calm Calm 2.0 mph3.2 kmh 29.94 in1013.9 mb 0.00 in0.0 mm 0.00 in0.0 mm 0.00 in0.0 mm
07:25 AM 52.0°F11.1°C 45.7°F7.6°C 79% Calm Calm 2.0 mph3.2 kmh 29.94 in1013.9 mb 0.00 in0.0 mm 0.00 in0.0 mm 0.00 in0.0 mm
07:30 AM 52.2°F11.2°C 45.9°F7.7°C 79% 0.9 mph SSE1.4 kmh SSE 3.0 mph4.8 kmh 29.94 in1013.9 mb 0.00 in0.0 mm 0.00 in0.0 mm 0.00 in0.0 mm
07:35 AM 52.3°F11.3°C 46.0°F7.8°C 79% 0.9 mph SSE1.4 kmh SSE 2.9 mph4.7 kmh 29.94 in1013.9 mb 0.00 in0.0 mm 0.00 in0.0 mm 0.00 in0.0 mm
07:40 AM 52.3°F11.3°C 46.0°F7.8°C 79% 0.9 mph S1.4 kmh S 6.0 mph9.7 kmh 29.94 in1013.9 mb 0.00 in0.0 mm 0.00 in0.0 mm 0.00 in0.0 mm
07:45 AM 52.7°F11.5°C 46.0°F7.8°C 78% 0.9 mph SW1.4 kmh SW 4.0 mph6.4 kmh 29.95 in1014.2 mb 0.00 in0.0 mm 0.00 in0.0 mm 0.00 in0.0 mm
07:50 AM 52.9°F11.6°C 46.2°F7.9°C 78% 2.0 mph S3.2 kmh S 4.9 mph7.9 kmh 29.95 in1014.2 mb 0.00 in0.0 mm 0.00 in0.0 mm 0.00 in0.0 mm
07:55 AM 53.1°F11.7°C 46.4°F8.0°C 78% 2.0 mph S3.2 kmh S 4.0 mph6.4 kmh 29.95 in1014.2 mb 0.00 in0.0 mm 0.00 in0.0 mm 0.00 in0.0 mm
08:00 AM 53.2°F11.8°C 46.6°F8.1°C 78% 0.9 mph SE1.4 kmh SE 2.0 mph3.2 kmh 29.95 in1014.2 mb 0.00 in0.0 mm 0.00 in0.0 mm 0.00 in0.0 mm
08:05 AM 53.2°F11.8°C 46.6°F8.1°C 78% 0.9 mph SE1.4 kmh SE 5.0 mph8.0 kmh 29.95 in1014.2 mb 0.00 in0.0 mm 0.00 in0.0 mm 0.00 in0.0 mm
08:10 AM 53.6°F12.0°C 46.6°F8.1°C 77% 2.0 mph ESE3.2 kmh ESE 4.9 mph7.9 kmh 29.96 in1014.6 mb 0.00 in0.0 mm 0.00 in0.0 mm 0.00 in0.0 mm
08:15 AM 53.8°F12.1°C 46.8°F8.2°C 77% 2.0 mph SSW3.2 kmh SSW 4.0 mph6.4 kmh 29.96 in1014.6 mb 0.00 in0.0 mm 0.00 in0.0 mm 0.00 in0.0 mm
08:20 AM 54.0°F12.2°C 46.9°F8.3°C 77% 2.0 mph SW3.2 kmh SW 4.9 mph7.9 kmh 29.96 in1014.6 mb 0.00 in0.0 mm 0.00 in0.0 mm 0.00 in0.0 mm
08:25 AM 54.0°F12.2°C 46.9°F8.3°C 77% 2.0 mph SW3.2 kmh SW 4.0 mph6.4 kmh 29.96 in1014.6 mb 0.00 in0.0 mm 0.00 in0.0 mm 0.00 in0.0 mm
08:30 AM 54.3°F12.4°C 47.3°F8.5°C 77% 2.0 mph SE3.2 kmh SE 6.0 mph9.7 kmh 29.97 in1014.9 mb 0.00 in0.0 mm 0.00 in0.0 mm 0.00 in0.0 mm
08:35 AM 54.7°F12.6°C 47.3°F8.5°C 76% 2.0 mph SSE3.2 kmh SSE 4.9 mph7.9 kmh 29.97 in1014.9 mb 0.00 in0.0 mm 0.00 in0.0 mm 0.00 in0.0 mm
08:40 AM 54.9°F12.7°C 47.1°F8.4°C 75% 2.9 mph SSE4.7 kmh SSE 6.0 mph9.7 kmh 29.96 in1014.6 mb 0.00 in0.0 mm 0.00 in0.0 mm 0.00 in0.0 mm
08:45 AM 54.9°F12.7°C 47.5°F8.6°C 76% 2.0 mph SE3.2 kmh SE 4.0 mph6.4 kmh 29.96 in1014.6 mb 0.00 in0.0 mm 0.00 in0.0 mm 0.00 in0.0 mm
08:50 AM 55.0°F12.8°C 47.3°F8.5°C 75% 2.0 mph SW3.2 kmh SW 6.0 mph9.7 kmh 29.96 in1014.6 mb 0.00 in0.0 mm 0.00 in0.0 mm 0.00 in0.0 mm
08:55 AM 55.0°F12.8°C 47.3°F8.5°C 75% 2.0 mph SSE3.2 kmh SSE 4.0 mph6.4 kmh 29.97 in1014.9 mb 0.00 in0.0 mm 0.00 in0.0 mm 0.00 in0.0 mm
09:00 AM 55.4°F13.0°C 47.7°F8.7°C 75% 2.0 mph S3.2 kmh S 6.0 mph9.7 kmh 29.96 in1014.6 mb 0.00 in0.0 mm 0.00 in0.0 mm 0.00 in0.0 mm
09:05 AM 55.9°F13.3°C 48.2°F9.0°C 75% 2.9 mph SE4.7 kmh SE 8.1 mph13.0 kmh 29.97 in1014.9 mb 0.00 in0.0 mm 0.00 in0.0 mm 0.00 in0.0 mm
09:10 AM 56.3°F13.5°C 48.2°F9.0°C 74% 2.9 mph S4.7 kmh S 4.9 mph7.9 kmh 29.96 in1014.6 mb 0.00 in0.0 mm 0.00 in0.0 mm 0.00 in0.0 mm
09:15 AM 56.5°F13.6°C 48.0°F8.9°C 73% 2.0 mph SSE3.2 kmh SSE 4.9 mph7.9 kmh 29.96 in1014.6 mb 0.00 in0.0 mm 0.00 in0.0 mm 0.00 in0.0 mm
09:20 AM 56.8°F13.8°C 47.8°F8.8°C 72% 2.9 mph SSW4.7 kmh SSW 6.0 mph9.7 kmh 29.96 in1014.6 mb 0.00 in0.0 mm 0.00 in0.0 mm 0.00 in0.0 mm
09:25 AM 57.0°F13.9°C 47.7°F8.7°C 71% 2.0 mph SSE3.2 kmh SSE 4.9 mph7.9 kmh 29.96 in1014.6 mb 0.00 in0.0 mm 0.00 in0.0 mm 0.00 in0.0 mm
09:30 AM 56.8°F13.8°C 47.8°F8.8°C 72% 2.9 mph S4.7 kmh S 6.0 mph9.7 kmh 29.96 in1014.6 mb 0.00 in0.0 mm 0.00 in0.0 mm 0.00 in0.0 mm
09:35 AM 56.8°F13.8°C 47.8°F8.8°C 72% 2.0 mph SE3.2 kmh SE 2.9 mph4.7 kmh 29.96 in1014.6 mb 0.00 in0.0 mm 0.00 in0.0 mm 0.00 in0.0 mm
09:40 AM 57.0°F13.9°C 47.7°F8.7°C 71% 2.0 mph SSW3.2 kmh SSW 8.1 mph13.0 kmh 29.96 in1014.6 mb 0.00 in0.0 mm 0.00 in0.0 mm 0.00 in0.0 mm
09:45 AM 57.0°F13.9°C 48.0°F8.9°C 72% 2.0 mph SSW3.2 kmh SSW 2.9 mph4.7 kmh 29.96 in1014.6 mb 0.00 in0.0 mm 0.00 in0.0 mm 0.00 in0.0 mm
09:50 AM 57.0°F13.9°C 48.0°F8.9°C 72% 2.0 mph S3.2 kmh S 4.0 mph6.4 kmh 29.96 in1014.6 mb 0.00 in0.0 mm 0.00 in0.0 mm 0.00 in0.0 mm
09:55 AM 57.2°F14.0°C 48.2°F9.0°C 72% 2.0 mph SE3.2 kmh SE 2.9 mph4.7 kmh 29.96 in1014.6 mb 0.00 in0.0 mm 0.00 in0.0 mm 0.00 in0.0 mm
10:00 AM 57.4°F14.1°C 48.4°F9.1°C 72% 0.9 mph SE1.4 kmh SE 2.0 mph3.2 kmh 29.96 in1014.6 mb 0.00 in0.0 mm 0.00 in0.0 mm 0.00 in0.0 mm
10:05 AM 57.7°F14.3°C 48.7°F9.3°C 72% Calm Calm 0.9 mph1.4 kmh 29.96 in1014.6 mb 0.00 in0.0 mm 0.00 in0.0 mm 0.00 in0.0 mm
10:11 AM 58.3°F14.6°C 48.9°F9.4°C 71% Calm Calm 3.0 mph4.8 kmh 29.95 in1014.2 mb 0.00 in0.0 mm 0.00 in0.0 mm 0.00 in0.0 mm
10:16 AM 59.0°F15.0°C 49.3°F9.6°C 70% 0.9 mph S1.4 kmh S 5.0 mph8.0 kmh 29.96 in1014.6 mb 0.00 in0.0 mm 0.00 in0.0 mm 0.00 in0.0 mm
10:21 AM 59.7°F15.4°C 49.5°F9.7°C 69% 2.0 mph SSE3.2 kmh SSE 5.0 mph8.0 kmh 29.96 in1014.6 mb 0.00 in0.0 mm 0.00 in0.0 mm 0.00 in0.0 mm
10:26 AM 60.3°F15.7°C 49.3°F9.6°C 67% 2.0 mph SSE3.2 kmh SSE 6.0 mph9.7 kmh 29.96 in1014.6 mb 0.00 in0.0 mm 0.00 in0.0 mm 0.00 in0.0 mm
10:31 AM 61.0°F16.1°C 49.1°F9.5°C 65% 2.0 mph S3.2 kmh S 4.9 mph7.9 kmh 29.96 in1014.6 mb 0.00 in0.0 mm 0.00 in0.0 mm 0.00 in0.0 mm
10:36 AM 61.3°F16.3°C 49.5°F9.7°C 65% 2.0 mph SSE3.2 kmh SSE 4.9 mph7.9 kmh 29.97 in1014.9 mb 0.00 in0.0 mm 0.00 in0.0 mm 0.00 in0.0 mm
10:41 AM 61.5°F16.4°C 48.7°F9.3°C 63% 2.0 mph S3.2 kmh S 4.9 mph7.9 kmh 29.96 in1014.6 mb 0.00 in0.0 mm 0.00 in0.0 mm 0.00 in0.0 mm
10:46 AM 61.5°F16.4°C 48.7°F9.3°C 63% 2.0 mph SW3.2 kmh SW 6.0 mph9.7 kmh 29.97 in1014.9 mb 0.00 in0.0 mm 0.00 in0.0 mm 0.00 in0.0 mm
10:51 AM 61.3°F16.3°C 49.1°F9.5°C 64% 2.0 mph SW3.2 kmh SW 4.9 mph7.9 kmh 29.97 in1014.9 mb 0.00 in0.0 mm 0.00 in0.0 mm 0.00 in0.0 mm
10:56 AM 61.2°F16.2°C 49.3°F9.6°C 65% 0.9 mph WSW1.4 kmh WSW 2.9 mph4.7 kmh 29.96 in1014.6 mb 0.00 in0.0 mm 0.00 in0.0 mm 0.00 in0.0 mm
11:01 AM 61.0°F16.1°C 48.7°F9.3°C 64% 0.9 mph SSW1.4 kmh SSW 5.0 mph8.0 kmh 29.97 in1014.9 mb 0.00 in0.0 mm 0.00 in0.0 mm 0.00 in0.0 mm
11:06 AM 61.0°F16.1°C 48.7°F9.3°C 64% 2.0 mph SE3.2 kmh SE 4.0 mph6.4 kmh 29.97 in1014.9 mb 0.00 in0.0 mm 0.00 in0.0 mm 0.00 in0.0 mm
11:11 AM 61.0°F16.1°C 49.1°F9.5°C 65% 2.0 mph SE3.2 kmh SE 4.0 mph6.4 kmh 29.96 in1014.6 mb 0.00 in0.0 mm 0.00 in0.0 mm 0.00 in0.0 mm
11:16 AM 61.0°F16.1°C 48.7°F9.3°C 64% 2.0 mph ESE3.2 kmh ESE 5.0 mph8.0 kmh 29.96 in1014.6 mb 0.00 in0.0 mm 0.00 in0.0 mm 0.00 in0.0 mm
11:21 AM 61.2°F16.2°C 49.3°F9.6°C 65% 2.0 mph SE3.2 kmh SE 4.0 mph6.4 kmh 29.96 in1014.6 mb 0.00 in0.0 mm 0.00 in0.0 mm 0.00 in0.0 mm
11:26 AM 61.3°F16.3°C 49.5°F9.7°C 65% 0.9 mph S1.4 kmh S 2.9 mph4.7 kmh 29.96 in1014.6 mb 0.00 in0.0 mm 0.00 in0.0 mm 0.00 in0.0 mm
11:31 AM 61.3°F16.3°C 49.1°F9.5°C 64% 2.0 mph SE3.2 kmh SE 8.1 mph13.0 kmh 29.96 in1014.6 mb 0.00 in0.0 mm 0.00 in0.0 mm 0.00 in0.0 mm
11:36 AM 61.5°F16.4°C 49.6°F9.8°C 65% 2.0 mph SSE3.2 kmh SSE 4.0 mph6.4 kmh 29.96 in1014.6 mb 0.00 in0.0 mm 0.00 in0.0 mm 0.00 in0.0 mm
11:41 AM 62.1°F16.7°C 49.8°F9.9°C 64% 2.0 mph SSE3.2 kmh SSE 4.0 mph6.4 kmh 29.95 in1014.2 mb 0.00 in0.0 mm 0.00 in0.0 mm 0.00 in0.0 mm
11:46 AM 62.4°F16.9°C 50.0°F10.0°C 64% 2.0 mph SE3.2 kmh SE 4.0 mph6.4 kmh 29.95 in1014.2 mb 0.00 in0.0 mm 0.00 in0.0 mm 0.00 in0.0 mm
11:51 AM 63.1°F17.3°C 50.7°F10.4°C 64% 0.9 mph SE1.4 kmh SE 0.9 mph1.4 kmh 29.95 in1014.2 mb 0.00 in0.0 mm 0.00 in0.0 mm 0.00 in0.0 mm
11:56 AM 63.5°F17.5°C 50.2°F10.1°C 62% 2.0 mph SE3.2 kmh SE 6.0 mph9.7 kmh 29.95 in1014.2 mb 0.00 in0.0 mm 0.00 in0.0 mm 0.00 in0.0 mm
12:01 PM 63.7°F17.6°C 50.0°F10.0°C 61% 2.0 mph SW3.2 kmh SW 4.0 mph6.4 kmh 29.94 in1013.9 mb 0.00 in0.0 mm 0.00 in0.0 mm 0.00 in0.0 mm
12:06 PM 63.9°F17.7°C 49.6°F9.8°C 60% 2.0 mph SSE3.2 kmh SSE 6.0 mph9.7 kmh 29.94 in1013.9 mb 0.00 in0.0 mm 0.00 in0.0 mm 0.00 in0.0 mm
12:11 PM 64.0°F17.8°C 51.3°F10.7°C 63% 0.9 mph SW1.4 kmh SW 4.0 mph6.4 kmh 29.94 in1013.9 mb 0.00 in0.0 mm 0.00 in0.0 mm 0.00 in0.0 mm
12:16 PM 64.2°F17.9°C 50.0°F10.0°C 60% 0.9 mph SE1.4 kmh SE 2.9 mph4.7 kmh 29.94 in1013.9 mb 0.00 in0.0 mm 0.00 in0.0 mm 0.00 in0.0 mm
12:21 PM 64.2°F17.9°C 50.0°F10.0°C 60% 0.9 mph SE1.4 kmh SE 4.0 mph6.4 kmh 29.95 in1014.2 mb 0.00 in0.0 mm 0.00 in0.0 mm 0.00 in0.0 mm
12:26 PM 64.0°F17.8°C 49.5°F9.7°C 59% 2.0 mph SE3.2 kmh SE 4.0 mph6.4 kmh 29.95 in1014.2 mb 0.00 in0.0 mm 0.00 in0.0 mm 0.00 in0.0 mm
12:31 PM 63.9°F17.7°C 49.3°F9.6°C 59% 2.0 mph S3.2 kmh S 6.0 mph9.7 kmh 29.95 in1014.2 mb 0.00 in0.0 mm 0.00 in0.0 mm 0.00 in0.0 mm
12:36 PM 63.9°F17.7°C 50.5°F10.3°C 62% 0.9 mph ESE1.4 kmh ESE 0.9 mph1.4 kmh 29.95 in1014.2 mb 0.00 in0.0 mm 0.00 in0.0 mm 0.00 in0.0 mm
12:41 PM 63.7°F17.6°C 50.0°F10.0°C 61% 0.9 mph SSW1.4 kmh SSW 4.0 mph6.4 kmh 29.95 in1014.2 mb 0.00 in0.0 mm 0.00 in0.0 mm 0.00 in0.0 mm
12:46 PM 63.5°F17.5°C 48.9°F9.4°C 59% 2.0 mph SE3.2 kmh SE 4.0 mph6.4 kmh 29.95 in1014.2 mb 0.00 in0.0 mm 0.00 in0.0 mm 0.00 in0.0 mm
12:51 PM 63.3°F17.4°C 49.3°F9.6°C 60% 2.0 mph SE3.2 kmh SE 6.0 mph9.7 kmh 29.94 in1013.9 mb 0.00 in0.0 mm 0.00 in0.0 mm 0.00 in0.0 mm
12:56 PM 63.3°F17.4°C 49.3°F9.6°C 60% 2.0 mph S3.2 kmh S 4.9 mph7.9 kmh 29.94 in1013.9 mb 0.00 in0.0 mm 0.00 in0.0 mm 0.00 in0.0 mm
01:01 PM 63.1°F17.3°C 49.1°F9.5°C 60% 2.0 mph SE3.2 kmh SE 4.0 mph6.4 kmh 29.94 in1013.9 mb 0.00 in0.0 mm 0.00 in0.0 mm 0.00 in0.0 mm
01:06 PM 63.3°F17.4°C 49.6°F9.8°C 61% 0.9 mph SW1.4 kmh SW 2.0 mph3.2 kmh 29.94 in1013.9 mb 0.00 in0.0 mm 0.00 in0.0 mm 0.00 in0.0 mm
01:11 PM 63.5°F17.5°C 49.8°F9.9°C 61% 0.9 mph SE1.4 kmh SE 3.0 mph4.8 kmh 29.93 in1013.5 mb 0.00 in0.0 mm 0.00 in0.0 mm 0.00 in0.0 mm
01:16 PM 63.5°F17.5°C 49.8°F9.9°C 61% 0.9 mph SE1.4 kmh SE 2.9 mph4.7 kmh 29.93 in1013.5 mb 0.00 in0.0 mm 0.00 in0.0 mm 0.00 in0.0 mm
01:21 PM 63.5°F17.5°C 49.3°F9.6°C 60% 0.9 mph SE1.4 kmh SE 2.9 mph4.7 kmh 29.94 in1013.9 mb 0.00 in0.0 mm 0.00 in0.0 mm 0.00 in0.0 mm
01:26 PM 63.5°F17.5°C 48.9°F9.4°C 59% 0.9 mph ESE1.4 kmh ESE 2.9 mph4.7 kmh 29.93 in1013.5 mb 0.00 in0.0 mm 0.00 in0.0 mm 0.00 in0.0 mm
01:31 PM 63.5°F17.5°C 49.3°F9.6°C 60% 2.0 mph SE3.2 kmh SE 4.0 mph6.4 kmh 29.93 in1013.5 mb 0.00 in0.0 mm 0.00 in0.0 mm 0.00 in0.0 mm
01:36 PM 63.3°F17.4°C 48.7°F9.3°C 59% 2.0 mph SE3.2 kmh SE 6.0 mph9.7 kmh 29.93 in1013.5 mb 0.00 in0.0 mm 0.00 in0.0 mm 0.00 in0.0 mm
01:41 PM 63.3°F17.4°C 49.6°F9.8°C 61% 2.0 mph SSW3.2 kmh SSW 2.9 mph4.7 kmh 29.93 in1013.5 mb 0.00 in0.0 mm 0.00 in0.0 mm 0.00 in0.0 mm
01:46 PM 63.1°F17.3°C 49.5°F9.7°C 61% 0.9 mph SSW1.4 kmh SSW 2.9 mph4.7 kmh 29.92 in1013.2 mb 0.00 in0.0 mm 0.00 in0.0 mm 0.00 in0.0 mm
01:51 PM 63.1°F17.3°C 49.8°F9.9°C 62% 0.9 mph SE1.4 kmh SE 0.9 mph1.4 kmh 29.92 in1013.2 mb 0.00 in0.0 mm 0.00 in0.0 mm 0.00 in0.0 mm
01:56 PM 63.1°F17.3°C 49.5°F9.7°C 61% 0.9 mph SE1.4 kmh SE 3.0 mph4.8 kmh 29.92 in1013.2 mb 0.00 in0.0 mm 0.00 in0.0 mm 0.00 in0.0 mm
02:01 PM 63.1°F17.3°C 49.1°F9.5°C 60% 0.9 mph ESE1.4 kmh ESE 4.0 mph6.4 kmh 29.92 in1013.2 mb 0.00 in0.0 mm 0.00 in0.0 mm 0.00 in0.0 mm
02:06 PM 63.3°F17.4°C 49.6°F9.8°C 61% 0.9 mph SE1.4 kmh SE 2.0 mph3.2 kmh 29.92 in1013.2 mb 0.00 in0.0 mm 0.00 in0.0 mm 0.00 in0.0 mm
02:11 PM 63.5°F17.5°C 49.8°F9.9°C 61% 0.9 mph E1.4 kmh E 2.9 mph4.7 kmh 29.92 in1013.2 mb 0.00 in0.0 mm 0.00 in0.0 mm 0.00 in0.0 mm
02:16 PM 63.9°F17.7°C 49.6°F9.8°C 60% 0.9 mph SSE1.4 kmh SSE 2.9 mph4.7 kmh 29.92 in1013.2 mb 0.00 in0.0 mm 0.00 in0.0 mm 0.00 in0.0 mm
02:21 PM 64.2°F17.9°C 50.0°F10.0°C 60% 0.9 mph SE1.4 kmh SE 4.0 mph6.4 kmh 29.91 in1012.9 mb 0.00 in0.0 mm 0.00 in0.0 mm 0.00 in0.0 mm
02:26 PM 64.6°F18.1°C 50.0°F10.0°C 59% 0.9 mph E1.4 kmh E 5.0 mph8.0 kmh 29.91 in1012.9 mb 0.00 in0.0 mm 0.00 in0.0 mm 0.00 in0.0 mm
02:31 PM 64.8°F18.2°C 49.6°F9.8°C 58% 2.0 mph SE3.2 kmh SE 7.0 mph11.3 kmh 29.91 in1012.9 mb 0.00 in0.0 mm 0.00 in0.0 mm 0.00 in0.0 mm
02:36 PM 64.8°F18.2°C 50.2°F10.1°C 59% 2.0 mph SSE3.2 kmh SSE 4.0 mph6.4 kmh 29.91 in1012.9 mb 0.00 in0.0 mm 0.00 in0.0 mm 0.00 in0.0 mm
02:41 PM 64.9°F18.3°C 50.2°F10.1°C 59% 2.0 mph SSE3.2 kmh SSE 2.9 mph4.7 kmh 29.91 in1012.9 mb 0.00 in0.0 mm 0.00 in0.0 mm 0.00 in0.0 mm
02:46 PM 65.3°F18.5°C 49.6°F9.8°C 57% 0.9 mph ESE1.4 kmh ESE 4.0 mph6.4 kmh 29.91 in1012.9 mb 0.00 in0.0 mm 0.00 in0.0 mm 0.00 in0.0 mm
02:51 PM 65.3°F18.5°C 49.6°F9.8°C 57% 2.0 mph SE3.2 kmh SE 5.0 mph8.0 kmh 29.91 in1012.9 mb 0.00 in0.0 mm 0.00 in0.0 mm 0.00 in0.0 mm
02:56 PM 65.3°F18.5°C 49.6°F9.8°C 57% 2.0 mph SE3.2 kmh SE 4.9 mph7.9 kmh 29.91 in1012.9 mb 0.00 in0.0 mm 0.00 in0.0 mm 0.00 in0.0 mm
03:01 PM 65.3°F18.5°C 50.2°F10.1°C 58% 2.0 mph S3.2 kmh S 4.9 mph7.9 kmh 29.91 in1012.9 mb 0.00 in0.0 mm 0.00 in0.0 mm 0.00 in0.0 mm
03:06 PM 65.3°F18.5°C 49.6°F9.8°C 57% 2.0 mph SSE3.2 kmh SSE 4.0 mph6.4 kmh 29.91 in1012.9 mb 0.00 in0.0 mm 0.00 in0.0 mm 0.00 in0.0 mm
03:12 PM 65.1°F18.4°C 49.1°F9.5°C 56% 2.0 mph SE3.2 kmh SE 4.9 mph7.9 kmh 29.91 in1012.9 mb 0.00 in0.0 mm 0.00 in0.0 mm 0.00 in0.0 mm
03:17 PM 64.9°F18.3°C 49.3°F9.6°C 57% 2.0 mph SW3.2 kmh SW 4.9 mph7.9 kmh 29.91 in1012.9 mb 0.00 in0.0 mm 0.00 in0.0 mm 0.00 in0.0 mm
03:22 PM 64.9°F18.3°C 49.3°F9.6°C 57% 2.0 mph SSW3.2 kmh SSW 4.9 mph7.9 kmh 29.92 in1013.2 mb 0.00 in0.0 mm 0.00 in0.0 mm 0.00 in0.0 mm
03:27 PM 64.9°F18.3°C 49.8°F9.9°C 58% 2.0 mph S3.2 kmh S 4.0 mph6.4 kmh 29.91 in1012.9 mb 0.00 in0.0 mm 0.00 in0.0 mm 0.00 in0.0 mm
03:32 PM 65.1°F18.4°C 50.0°F10.0°C 58% 0.9 mph SE1.4 kmh SE 2.9 mph4.7 kmh 29.92 in1013.2 mb 0.00 in0.0 mm 0.00 in0.0 mm 0.00 in0.0 mm
03:37 PM 65.1°F18.4°C 49.5°F9.7°C 57% 2.0 mph S3.2 kmh S 7.0 mph11.3 kmh 29.92 in1013.2 mb 0.00 in0.0 mm 0.00 in0.0 mm 0.00 in0.0 mm
03:42 PM 65.1°F18.4°C 50.0°F10.0°C 58% 2.0 mph S3.2 kmh S 4.9 mph7.9 kmh 29.91 in1012.9 mb 0.00 in0.0 mm 0.00 in0.0 mm 0.00 in0.0 mm
03:47 PM 65.1°F18.4°C 49.5°F9.7°C 57% 0.9 mph SE1.4 kmh SE 6.0 mph9.7 kmh 29.90 in1012.5 mb 0.00 in0.0 mm 0.00 in0.0 mm 0.00 in0.0 mm
03:52 PM 65.1°F18.4°C 50.0°F10.0°C 58% 2.0 mph SE3.2 kmh SE 6.0 mph9.7 kmh 29.90 in1012.5 mb 0.00 in0.0 mm 0.00 in0.0 mm 0.00 in0.0 mm
03:57 PM 64.9°F18.3°C 49.8°F9.9°C 58% 2.0 mph SE3.2 kmh SE 4.0 mph6.4 kmh 29.90 in1012.5 mb 0.00 in0.0 mm 0.00 in0.0 mm 0.00 in0.0 mm
04:02 PM 64.8°F18.2°C 50.2°F10.1°C 59% 2.0 mph ESE3.2 kmh ESE 2.9 mph4.7 kmh 29.90 in1012.5 mb 0.00 in0.0 mm 0.00 in0.0 mm 0.00 in0.0 mm
04:07 PM 64.8°F18.2°C 50.2°F10.1°C 59% 0.9 mph SE1.4 kmh SE 2.0 mph3.2 kmh 29.90 in1012.5 mb 0.00 in0.0 mm 0.00 in0.0 mm 0.00 in0.0 mm
04:12 PM 64.9°F18.3°C 50.2°F10.1°C 59% 0.9 mph S1.4 kmh S 4.0 mph6.4 kmh 29.91 in1012.9 mb 0.00 in0.0 mm 0.00 in0.0 mm 0.00 in0.0 mm
04:17 PM 64.9°F18.3°C 50.7°F10.4°C 60% 2.0 mph SE3.2 kmh SE 4.0 mph6.4 kmh 29.91 in1012.9 mb 0.00 in0.0 mm 0.00 in0.0 mm 0.00 in0.0 mm
04:22 PM 64.8°F18.2°C 50.5°F10.3°C 60% 2.0 mph SE3.2 kmh SE 4.0 mph6.4 kmh 29.90 in1012.5 mb 0.00 in0.0 mm 0.00 in0.0 mm 0.00 in0.0 mm
04:27 PM 64.6°F18.1°C 50.4°F10.2°C 60% 2.0 mph SE3.2 kmh SE 4.0 mph6.4 kmh 29.90 in1012.5 mb 0.00 in0.0 mm 0.00 in0.0 mm 0.00 in0.0 mm
04:32 PM 64.4°F18.0°C 50.2°F10.1°C 60% 2.0 mph SE3.2 kmh SE 4.0 mph6.4 kmh 29.90 in1012.5 mb 0.00 in0.0 mm 0.00 in0.0 mm 0.00 in0.0 mm
04:37 PM 64.2°F17.9°C 50.0°F10.0°C 60% 2.0 mph SE3.2 kmh SE 2.9 mph4.7 kmh 29.89 in1012.2 mb 0.00 in0.0 mm 0.00 in0.0 mm 0.00 in0.0 mm
04:42 PM 64.0°F17.8°C 50.4°F10.2°C 61% 0.9 mph SE1.4 kmh SE 5.0 mph8.0 kmh 29.89 in1012.2 mb 0.00 in0.0 mm 0.00 in0.0 mm 0.00 in0.0 mm
04:47 PM 63.9°F17.7°C 50.2°F10.1°C 61% 0.9 mph S1.4 kmh S 4.9 mph7.9 kmh 29.89 in1012.2 mb 0.00 in0.0 mm 0.00 in0.0 mm 0.00 in0.0 mm
04:52 PM 63.9°F17.7°C 50.2°F10.1°C 61% 2.0 mph SE3.2 kmh SE 4.9 mph7.9 kmh 29.89 in1012.2 mb 0.00 in0.0 mm 0.00 in0.0 mm 0.00 in0.0 mm
04:57 PM 63.7°F17.6°C 50.4°F10.2°C 62% 0.9 mph SE1.4 kmh SE 2.9 mph4.7 kmh 29.89 in1012.2 mb 0.00 in0.0 mm 0.00 in0.0 mm 0.00 in0.0 mm
05:02 PM 63.7°F17.6°C 51.3°F10.7°C 64% 0.9 mph SE1.4 kmh SE 2.0 mph3.2 kmh 29.89 in1012.2 mb 0.00 in0.0 mm 0.00 in0.0 mm 0.00 in0.0 mm
05:07 PM 63.3°F17.4°C 50.9°F10.5°C 64% 0.9 mph SE1.4 kmh SE 5.0 mph8.0 kmh 29.90 in1012.5 mb 0.00 in0.0 mm 0.00 in0.0 mm 0.00 in0.0 mm
05:22 PM 63.0°F17.2°C 50.5°F10.3°C 64% 2.9 mph SE4.7 kmh SE 6.9 mph11.1 kmh 29.90 in1012.5 mb 0.00 in0.0 mm 0.00 in0.0 mm 0.00 in0.0 mm
05:27 PM 62.8°F17.1°C 50.4°F10.2°C 64% 2.0 mph S3.2 kmh S 4.9 mph7.9 kmh 29.89 in1012.2 mb 0.00 in0.0 mm 0.00 in0.0 mm 0.00 in0.0 mm
05:32 PM 62.6°F17.0°C 50.7°F10.4°C 65% 2.0 mph E3.2 kmh E 4.0 mph6.4 kmh 29.89 in1012.2 mb 0.00 in0.0 mm 0.00 in0.0 mm 0.00 in0.0 mm
05:37 PM 62.4°F16.9°C 50.5°F10.3°C 65% 2.0 mph E3.2 kmh E 6.0 mph9.7 kmh 29.88 in1011.9 mb 0.00 in0.0 mm 0.00 in0.0 mm 0.00 in0.0 mm
05:42 PM 62.2°F16.8°C 50.4°F10.2°C 65% 2.0 mph SE3.2 kmh SE 6.0 mph9.7 kmh 29.88 in1011.9 mb 0.00 in0.0 mm 0.00 in0.0 mm 0.00 in0.0 mm
05:47 PM 62.1°F16.7°C 50.2°F10.1°C 65% 2.0 mph E3.2 kmh E 4.0 mph6.4 kmh 29.88 in1011.9 mb 0.00 in0.0 mm 0.00 in0.0 mm 0.00 in0.0 mm
05:52 PM 61.9°F16.6°C 50.4°F10.2°C 66% 0.9 mph ESE1.4 kmh ESE 2.9 mph4.7 kmh 29.88 in1011.9 mb 0.00 in0.0 mm 0.00 in0.0 mm 0.00 in0.0 mm
05:57 PM 61.7°F16.5°C 50.2°F10.1°C 66% 0.9 mph SE1.4 kmh SE 2.9 mph4.7 kmh 29.87 in1011.5 mb 0.00 in0.0 mm 0.00 in0.0 mm 0.00 in0.0 mm
06:02 PM 61.5°F16.4°C 50.0°F10.0°C 66% 0.9 mph SE1.4 kmh SE 4.0 mph6.4 kmh 29.87 in1011.5 mb 0.00 in0.0 mm 0.00 in0.0 mm 0.00 in0.0 mm
06:07 PM 61.5°F16.4°C 50.0°F10.0°C 66% 0.9 mph SE1.4 kmh SE 2.9 mph4.7 kmh 29.88 in1011.9 mb 0.00 in0.0 mm 0.00 in0.0 mm 0.00 in0.0 mm
06:12 PM 61.3°F16.3°C 49.8°F9.9°C 66% 0.9 mph ESE1.4 kmh ESE 2.9 mph4.7 kmh 29.88 in1011.9 mb 0.00 in0.0 mm 0.00 in0.0 mm 0.00 in0.0 mm
06:17 PM 61.3°F16.3°C 50.4°F10.2°C 67% 0.9 mph SE1.4 kmh SE 6.0 mph9.7 kmh 29.88 in1011.9 mb 0.00 in0.0 mm 0.00 in0.0 mm 0.00 in0.0 mm
06:22 PM 61.3°F16.3°C 50.4°F10.2°C 67% 0.9 mph SE1.4 kmh SE 4.0 mph6.4 kmh 29.89 in1012.2 mb 0.00 in0.0 mm 0.00 in0.0 mm 0.00 in0.0 mm
06:27 PM 61.2°F16.2°C 50.2°F10.1°C 67% 0.9 mph SE1.4 kmh SE 4.0 mph6.4 kmh 29.89 in1012.2 mb 0.00 in0.0 mm 0.00 in0.0 mm 0.00 in0.0 mm
06:32 PM 61.2°F16.2°C 50.5°F10.3°C 68% 0.9 mph SE1.4 kmh SE 4.0 mph6.4 kmh 29.88 in1011.9 mb 0.00 in0.0 mm 0.00 in0.0 mm 0.00 in0.0 mm
06:37 PM 61.2°F16.2°C 50.5°F10.3°C 68% 2.0 mph SE3.2 kmh SE 6.0 mph9.7 kmh 29.87 in1011.5 mb 0.00 in0.0 mm 0.00 in0.0 mm 0.00 in0.0 mm
06:42 PM 61.2°F16.2°C 50.5°F10.3°C 68% 2.0 mph SE3.2 kmh SE 4.9 mph7.9 kmh 29.87 in1011.5 mb 0.00 in0.0 mm 0.00 in0.0 mm 0.00 in0.0 mm
06:47 PM 61.2°F16.2°C 50.9°F10.5°C 69% 2.0 mph ESE3.2 kmh ESE 4.0 mph6.4 kmh 29.88 in1011.9 mb 0.00 in0.0 mm 0.00 in0.0 mm 0.00 in0.0 mm
06:52 PM 61.0°F16.1°C 51.1°F10.6°C 70% 2.0 mph SE3.2 kmh SE 7.0 mph11.3 kmh 29.88 in1011.9 mb 0.00 in0.0 mm 0.00 in0.0 mm 0.00 in0.0 mm
06:57 PM 60.4°F15.8°C 51.1°F10.6°C 71% 2.0 mph E3.2 kmh E 4.0 mph6.4 kmh 29.88 in1011.9 mb 0.00 in0.0 mm 0.00 in0.0 mm 0.00 in0.0 mm
07:02 PM 60.3°F15.7°C 51.3°F10.7°C 72% 2.0 mph ESE3.2 kmh ESE 4.0 mph6.4 kmh 29.87 in1011.5 mb 0.00 in0.0 mm 0.00 in0.0 mm 0.00 in0.0 mm
07:07 PM 60.1°F15.6°C 51.4°F10.8°C 73% 2.0 mph SE3.2 kmh SE 4.0 mph6.4 kmh 29.87 in1011.5 mb 0.00 in0.0 mm 0.00 in0.0 mm 0.00 in0.0 mm
07:12 PM 59.7°F15.4°C 51.4°F10.8°C 74% 0.9 mph SE1.4 kmh SE 4.0 mph6.4 kmh 29.89 in1012.2 mb 0.00 in0.0 mm 0.00 in0.0 mm 0.00 in0.0 mm
07:17 PM 59.5°F15.3°C 52.0°F11.1°C 76% Calm Calm 0.9 mph1.4 kmh 29.88 in1011.9 mb 0.01 in0.3 mm 0.12 in3.0 mm 0.01 in0.3 mm
07:22 PM 59.2°F15.1°C 52.7°F11.5°C 79% Calm Calm 0.9 mph1.4 kmh 29.89 in1012.2 mb 0.01 in0.3 mm 0.00 in0.0 mm 0.01 in0.3 mm
07:27 PM 58.6°F14.8°C 52.9°F11.6°C 81% Calm Calm -- 29.89 in1012.2 mb 0.02 in0.5 mm 0.12 in3.0 mm 0.02 in0.5 mm
07:32 PM 58.1°F14.5°C 52.7°F11.5°C 82% Calm Calm 1.0 mph1.6 kmh 29.89 in1012.2 mb 0.02 in0.5 mm 0.00 in0.0 mm 0.02 in0.5 mm
07:37 PM 57.7°F14.3°C 52.9°F11.6°C 84% Calm Calm 0.9 mph1.4 kmh 29.90 in1012.5 mb 0.03 in0.8 mm 0.12 in3.0 mm 0.03 in0.8 mm
07:42 PM 57.6°F14.2°C 53.4°F11.9°C 86% Calm Calm -- 29.89 in1012.2 mb 0.03 in0.8 mm 0.00 in0.0 mm 0.03 in0.8 mm
07:47 PM 57.4°F14.1°C 52.9°F11.6°C 85% 0.9 mph E1.4 kmh E 4.0 mph6.4 kmh 29.88 in1011.9 mb 0.04 in1.0 mm 0.12 in3.0 mm 0.04 in1.0 mm
07:52 PM 57.2°F14.0°C 53.1°F11.7°C 86% 2.0 mph SSE3.2 kmh SSE 2.9 mph4.7 kmh 29.87 in1011.5 mb 0.04 in1.0 mm 0.00 in0.0 mm 0.04 in1.0 mm
07:57 PM 57.0°F13.9°C 53.2°F11.8°C 87% 0.9 mph SW1.4 kmh SW 0.9 mph1.4 kmh 29.89 in1012.2 mb 0.05 in1.3 mm 0.12 in3.0 mm 0.05 in1.3 mm
08:02 PM 56.8°F13.8°C 53.1°F11.7°C 87% Calm Calm -- 29.90 in1012.5 mb 0.10 in2.5 mm 0.05 in1.3 mm 0.10 in2.5 mm
08:07 PM 56.5°F13.6°C 53.2°F11.8°C 89% Calm Calm 2.0 mph3.2 kmh 29.88 in1011.9 mb 0.15 in3.8 mm 0.60 in15.2 mm 0.15 in3.8 mm
08:12 PM 56.1°F13.4°C 52.9°F11.6°C 89% 0.9 mph SE1.4 kmh SE 4.0 mph6.4 kmh 29.88 in1011.9 mb 0.20 in5.1 mm 0.60 in15.2 mm 0.20 in5.1 mm
08:17 PM 56.1°F13.4°C 53.2°F11.8°C 90% 2.0 mph E3.2 kmh E 2.9 mph4.7 kmh 29.87 in1011.5 mb 0.21 in5.3 mm 0.12 in3.0 mm 0.22 in5.6 mm
08:22 PM 56.1°F13.4°C 53.2°F11.8°C 90% 2.0 mph E3.2 kmh E 2.0 mph3.2 kmh 29.87 in1011.5 mb 0.21 in5.3 mm 0.00 in0.0 mm 0.22 in5.6 mm
08:27 PM 56.1°F13.4°C 53.2°F11.8°C 90% 0.9 mph SE1.4 kmh SE 2.9 mph4.7 kmh 29.87 in1011.5 mb 0.20 in5.1 mm 0.00 in0.0 mm 0.22 in5.6 mm
08:32 PM 56.1°F13.4°C 53.2°F11.8°C 90% Calm Calm 0.9 mph1.4 kmh 29.87 in1011.5 mb 0.22 in5.6 mm 0.24 in6.1 mm 0.25 in6.4 mm
08:37 PM 56.1°F13.4°C 53.2°F11.8°C 90% Calm Calm 2.0 mph3.2 kmh 29.87 in1011.5 mb 0.22 in5.6 mm 0.00 in0.0 mm 0.25 in6.4 mm
08:47 PM 56.1°F13.4°C 53.6°F12.0°C 91% 0.9 mph ESE1.4 kmh ESE 2.9 mph4.7 kmh 29.87 in1011.5 mb 0.21 in5.3 mm 0.00 in0.0 mm 0.25 in6.4 mm
08:52 PM 56.3°F13.5°C 53.8°F12.1°C 91% 0.9 mph ESE1.4 kmh ESE 4.0 mph6.4 kmh 29.88 in1011.9 mb 0.20 in5.1 mm 0.00 in0.0 mm 0.25 in6.4 mm
08:57 PM 56.3°F13.5°C 53.4°F11.9°C 90% 0.9 mph ESE1.4 kmh ESE 2.9 mph4.7 kmh 29.88 in1011.9 mb 0.19 in4.8 mm 0.00 in0.0 mm 0.25 in6.4 mm
09:03 PM 56.3°F13.5°C 53.4°F11.9°C 90% 0.9 mph SSE1.4 kmh SSE 2.0 mph3.2 kmh 29.88 in1011.9 mb 0.13 in3.3 mm 0.00 in0.0 mm 0.25 in6.4 mm
09:08 PM 56.5°F13.6°C 54.0°F12.2°C 91% 0.9 mph ESE1.4 kmh ESE 2.9 mph4.7 kmh 29.88 in1011.9 mb 0.09 in2.3 mm 0.00 in0.0 mm 0.26 in6.6 mm
09:13 PM 56.3°F13.5°C 53.8°F12.1°C 91% 0.9 mph E1.4 kmh E 2.9 mph4.7 kmh 29.87 in1011.5 mb 0.06 in1.5 mm 0.00 in0.0 mm 0.26 in6.6 mm
09:18 PM 56.3°F13.5°C 53.8°F12.1°C 91% 0.9 mph E1.4 kmh E 6.0 mph9.7 kmh 29.87 in1011.5 mb 0.04 in1.0 mm 0.00 in0.0 mm 0.26 in6.6 mm
09:23 PM 56.3°F13.5°C 53.8°F12.1°C 91% 0.9 mph SE1.4 kmh SE 2.0 mph3.2 kmh 29.87 in1011.5 mb 0.04 in1.0 mm 0.00 in0.0 mm 0.26 in6.6 mm
09:28 PM 56.3°F13.5°C 53.8°F12.1°C 91% Calm Calm 0.9 mph1.4 kmh 29.87 in1011.5 mb 0.04 in1.0 mm 0.00 in0.0 mm 0.26 in6.6 mm
09:33 PM 56.3°F13.5°C 53.8°F12.1°C 91% Calm Calm 0.9 mph1.4 kmh 29.88 in1011.9 mb 0.01 in0.3 mm 0.00 in0.0 mm 0.26 in6.6 mm
09:38 PM 56.5°F13.6°C 54.1°F12.3°C 92% Calm Calm 2.0 mph3.2 kmh 29.91 in1012.9 mb 0.01 in0.3 mm 0.00 in0.0 mm 0.26 in6.6 mm
09:43 PM 56.5°F13.6°C 54.1°F12.3°C 92% 0.9 mph WSW1.4 kmh WSW 3.0 mph4.8 kmh 29.93 in1013.5 mb 0.01 in0.3 mm 0.00 in0.0 mm 0.26 in6.6 mm
09:48 PM 56.3°F13.5°C 54.0°F12.2°C 92% Calm Calm 0.9 mph1.4 kmh 29.93 in1013.5 mb 0.01 in0.3 mm 0.00 in0.0 mm 0.26 in6.6 mm
09:53 PM 56.1°F13.4°C 53.8°F12.1°C 92% Calm Calm 0.9 mph1.4 kmh 29.93 in1013.5 mb 0.01 in0.3 mm 0.00 in0.0 mm 0.26 in6.6 mm
09:58 PM 56.1°F13.4°C 53.8°F12.1°C 92% Calm Calm -- 29.93 in1013.5 mb 0.01 in0.3 mm 0.00 in0.0 mm 0.26 in6.6 mm
10:03 PM 56.1°F13.4°C 54.1°F12.3°C 93% Calm Calm -- 29.94 in1013.9 mb 0.01 in0.3 mm 0.00 in0.0 mm 0.26 in6.6 mm
10:08 PM 56.1°F13.4°C 54.1°F12.3°C 93% Calm Calm 0.9 mph1.4 kmh 29.92 in1013.2 mb 0.00 in0.0 mm 0.00 in0.0 mm 0.26 in6.6 mm
10:13 PM 56.1°F13.4°C 54.1°F12.3°C 93% Calm Calm 0.9 mph1.4 kmh 29.93 in1013.5 mb 0.01 in0.3 mm 0.12 in3.0 mm 0.27 in6.9 mm
10:18 PM 55.9°F13.3°C 54.0°F12.2°C 93% Calm Calm 0.9 mph1.4 kmh 29.94 in1013.9 mb 0.02 in0.5 mm 0.12 in3.0 mm 0.28 in7.1 mm
10:23 PM 55.9°F13.3°C 54.3°F12.4°C 94% Calm Calm -- 29.93 in1013.5 mb 0.02 in0.5 mm 0.00 in0.0 mm 0.28 in7.1 mm
10:28 PM 55.9°F13.3°C 54.3°F12.4°C 94% Calm Calm 1.0 mph1.6 kmh 29.93 in1013.5 mb 0.03 in0.8 mm 0.12 in3.0 mm 0.29 in7.4 mm
10:33 PM 55.9°F13.3°C 54.3°F12.4°C 94% Calm Calm -- 29.93 in1013.5 mb 0.05 in1.3 mm 0.24 in6.1 mm 0.31 in7.9 mm
10:38 PM 55.9°F13.3°C 54.3°F12.4°C 94% Calm Calm 0.9 mph1.4 kmh 29.93 in1013.5 mb 0.05 in1.3 mm 0.00 in0.0 mm 0.31 in7.9 mm
10:43 PM 55.8°F13.2°C 54.1°F12.3°C 94% Calm Calm -- 29.93 in1013.5 mb 0.05 in1.3 mm 0.00 in0.0 mm 0.31 in7.9 mm
10:48 PM 55.8°F13.2°C 54.1°F12.3°C 94% Calm Calm -- 29.94 in1013.9 mb 0.05 in1.3 mm 0.00 in0.0 mm 0.31 in7.9 mm
10:53 PM 55.8°F13.2°C 54.3°F12.4°C 95% Calm Calm -- 29.94 in1013.9 mb 0.05 in1.3 mm 0.00 in0.0 mm 0.31 in7.9 mm
10:58 PM 55.6°F13.1°C 54.1°F12.3°C 95% Calm Calm 1.0 mph1.6 kmh 29.94 in1013.9 mb 0.05 in1.3 mm 0.00 in0.0 mm 0.31 in7.9 mm
11:03 PM 55.6°F13.1°C 54.1°F12.3°C 95% Calm Calm 1.0 mph1.6 kmh 29.94 in1013.9 mb 0.05 in1.3 mm 0.00 in0.0 mm 0.31 in7.9 mm
11:08 PM 55.6°F13.1°C 54.1°F12.3°C 95% Calm Calm 0.9 mph1.4 kmh 29.94 in1013.9 mb 0.05 in1.3 mm 0.00 in0.0 mm 0.31 in7.9 mm
11:13 PM 55.6°F13.1°C 54.1°F12.3°C 95% Calm Calm -- 29.94 in1013.9 mb 0.04 in1.0 mm 0.00 in0.0 mm 0.31 in7.9 mm
11:18 PM 55.6°F13.1°C 54.1°F12.3°C 95% Calm Calm 1.0 mph1.6 kmh 29.94 in1013.9 mb 0.03 in0.8 mm 0.00 in0.0 mm 0.31 in7.9 mm
11:23 PM 55.6°F13.1°C 54.1°F12.3°C 95% Calm Calm -- 29.94 in1013.9 mb 0.02 in0.5 mm 0.00 in0.0 mm 0.31 in7.9 mm
11:28 PM 55.6°F13.1°C 54.1°F12.3°C 95% Calm Calm -- 29.94 in1013.9 mb 0.01 in0.3 mm 0.00 in0.0 mm 0.31 in7.9 mm
11:33 PM 55.4°F13.0°C 54.0°F12.2°C 95% Calm Calm -- 29.93 in1013.5 mb 0.00 in0.0 mm 0.00 in0.0 mm 0.31 in7.9 mm
11:38 PM 55.4°F13.0°C 54.0°F12.2°C 95% Calm Calm -- 29.94 in1013.9 mb 0.00 in0.0 mm 0.00 in0.0 mm 0.31 in7.9 mm
11:43 PM 55.4°F13.0°C 54.0°F12.2°C 95% Calm Calm 1.0 mph1.6 kmh 29.93 in1013.5 mb 0.00 in0.0 mm 0.00 in0.0 mm 0.31 in7.9 mm
11:48 PM 55.2°F12.9°C 53.8°F12.1°C 95% Calm Calm 0.9 mph1.4 kmh 29.93 in1013.5 mb 0.00 in0.0 mm 0.00 in0.0 mm 0.31 in7.9 mm
11:53 PM 55.2°F12.9°C 53.8°F12.1°C 95% Calm Calm 0.9 mph1.4 kmh 29.93 in1013.5 mb 0.00 in0.0 mm 0.00 in0.0 mm 0.31 in7.9 mm
11:58 PM 55.2°F12.9°C 53.8°F12.1°C 95% Calm Calm -- 29.93 in1013.5 mb 0.00 in0.0 mm 0.00 in0.0 mm 0.31 in7.9 mm